Campo di Volo "Al Ranch"

IT-0402 · Friuli Venezia Giulia, 意大利

罗盘
风向 的 风向 350° Campo di Volo "Al Ranch" 14/32
风: 4 kt, 2 beaufort

4 kt

2 kt
改变
0 ft 1.000 2.000 3.000 4.000 5.000
Cloud Cloud Cloud Cloud
SCT 2.700
Cloud Cloud Cloud Cloud Cloud Cloud
BKN 4.500
METAR LIPI 021255Z 35004KT 9999 SCT027 BKN045 12/09 Q1009 RMK BKN VIS MIN 9999 WIND THR06 36005KT WIND THR24 /////KT BLU

METAR Campo di Volo "Al Ranch" - IT-0402

Campo di Volo "Al Ranch"是,意大利中的小机场。 该机场位于纬度45,92352和经度13,03556。 该机场有一条跑道: 14/32. 这个机场没有ICAO代码,我们使用IT-0402作为参考。 机场在Milano FIR中。

该航空气象观测是针对Rivolto Air Base在2024年3月2日 13:55, 当地时间进行的。

机场观察

风向为350°,速度为4 kt。

可见度为10 km 或者更多。

有疏云,零星散落的云朵在2.700 ft的高度 和 碎云在4.500 ft的高度。 破损或更高的上限为4.500 ft。

温度和风寒是12 °C。 露点为9 °C,相对湿度为82%。 海平面上的气压为1009 hPa (QNH)。

白天

今天,太阳从06:43升起,在17:56降落。 这适用于Campo di Volo "Al Ranch",世界夏令时可能有所不同。 当地时间与世界标准时间之间的时差为+1 小时。 当前,没有夏令时有效。

公司介绍

我们没有关于这个机场的公司信息。

体会

到Vliegles.nl去找飞行课程,跳伞和其他飞行体验。 浏览页面,了解Campo di Volo "Al Ranch"附近所有可用的活动。 你也可以使用搜索功能来寻找你所在地附近的特定飞行课程、跳伞或其他飞行体验。

跑道

Id 标题 侧风 逆风 侧风 %
14/32 144°-324° 2 kt 4 kt 44 %

逆风成分最大的方向会被突出显示,并用于横风计算。 这并不一定意味着这个方向在使用。

乌云

2.700 ft SCT 疏云,零星散落的云朵
4.500 ft BKN 碎云

温度 & 天气

温度 12 °C
露点 9 °C
相对湿度 82%
Kp-index 1 (0-9)

评论

BKN VIS MIN 9999 WIND THR06 36005KT WIND THR24 /////KT

白天

日出
06:43
中午
12:19
日落
17:55 (3:17)

小工具

你想在你的网站上有一个关于Campo di Volo "Al Ranch"的当前航空天气(METAR)的小部件吗?

显示HTML代码
?>